Egg Harbor, Wisconsin
Current Conditions -  °F | °C
As of 5:55 AM on Thursday 23 Oct 2014 (Local Time) from KSUE Reporting Station
Clear Clear  
Wind Chill: 36°   Ceiling: Unl
Heat Index: 41°   Visibility: 10mi
Dew Point: 36°   Wind: 7mph
Humidity: 81%   Direction: 180°S
Pressure: 30.19"   Gusts: NA
Location:  45.05°N, 87.3°W
Report Text: KSUE 231055Z AUTO 18006KT 10SM CLR 05/02 A3019 RMK AO1
Loading
Personal Weather Stations






























Interactive Weather Map
Tropical Storm Tracking
New forecast layout! Learn more

10-Day Weather Forecast

Advertisements
Track Severe Weather on mobile